Airfield :
LOGIN :

Register | Disclaimer

   EN    FR    IT 

 










Legend :    VFR   Marginal VFR   IFR   Intensive IFR   Very Intensive IFR
Visi :
Ceiling :
>= 8 km
>= 3000ft
5 to 8 km
1000 to 3000 ft
1500m to 5 km
500 to 1000 ft
800 to 1500m
200 to 500 ft
< 800m
< 200 ft
Symbols :   Thunderstorms  Fog  Heavy snow  Heavy precipitations  Wind > 20 kt
SIGMETs :     Misc.  Thunderstorms  Icing  Turbulence  Mountain Waves  Volcanic Ashes







- Airport Elevation : 72 ft
- IATA code : UDE


EHVK - Volkel Airbase

CURRENT METAR :
  • 181455Z AUTO 24013KT 220V290 9999 NCD 27/12 Q1011 BLU

EXPIRED METARs :
  • 181425Z AUTO 24014KT 220V290 9999 NCD 27/11 Q1011 BLU
  • 181355Z AUTO 25014KT 9999 NCD 27/12 Q1011 BLU 21012G22KT CAVOK
  • 181325Z AUTO 23015KT 180V280 9999 NCD 28/13 Q1011 BLU 21012G22KT CAVOK
  • 181255Z AUTO 23016KT 190V260 9999 NCD 28/13 Q1011 BLU 21012G22KT CAVOK
  • 181225Z AUTO 22014KT 180V240 9999 NCD 28/13 Q1011 BLU 21012G22KT CAVOK

TAF TAF EHVK
Valid from the 18 at 13:00 until the 19 at 01:00 UTC


181218Z 1813/1901 23015G25KT CAVOK
BECMG 1816/1818 26010KT
BECMG 1819/1821 22005KT
No reported NOTAMs for that airfield.



MET'MAP, your aeronautical weather chart ! - Copyright ORBIFLY December 2007 - Disclaimer

ORBIFLY MET'MAP TEAM :

Programming & Development : Alexandra Zaïnal
Concept & Development : Baudouin d'Aumeries
Co-Development & Prog : Marc-Olivier Méhu
Technical & hardware support : Manuel Goepfert

Contact : metmap@orbifly.com




SOURCES & CREDITS :

   NOAA